Weather at Buchanan Field

Public forecast

Using degrees Fahrenheit for public forecast. Weather courtesy of forecast.io.

Current aviation weather report (METAR) for Buchanan Field

Retrieved 2021/10/24 07:53 UTC (12 minutes ago):

KCCR 240753Z AUTO 18011KT 6SM -RA BR BKN055 BKN070 OVC090 15/13 A2978 RMK AO2 SLP070 P0015 T01500133 401940122

Aviation forecast (TAF) for Buchanan Field

Forecast is more than 12 hours old.

Retrieved 2016/02/08 00:21 UTC (6 years ago):

TAF KCCR 082320Z 0900/0924 06006KT P6SM SKC FM090600 VRB03KT P6SM SKC FM091800 04009KT P6SM SKC